Terminal Aerodrome Forecast
Issued by NWS

Current Version | Previous Version | Graphics & Text | Print | Product List | Glossary On
Versions: 1 2 3 4 5 6 7 8 9 10 11 12 13 14 15 16 17 18 19 20
992
FTUS41 KILN 142320
TAFLUK
TAF
KLUK 142320Z 1500/1524 00000KT P6SM FEW025 BKN200
     FM151200 00000KT P6SM BKN090
     FM151700 25010G17KT P6SM SCT040
     FM152300 26008KT P6SM BKN040=

USA.gov is the U.S. government's official web portal to all federal, state and local government web resources and services.